createdAt,value
2024-01-11T00:00:22.020Z,27.65
2024-01-11T00:01:22.129Z,27.59
2024-01-11T00:02:22.203Z,27.65
2024-01-11T00:03:22.168Z,27.62
2024-01-11T00:04:22.264Z,27.62
2024-01-11T00:05:22.327Z,27.59
2024-01-11T00:06:22.347Z,27.64
2024-01-11T00:07:22.329Z,27.62
2024-01-11T00:08:22.454Z,27.64
2024-01-11T00:09:22.392Z,27.63
2024-01-11T00:10:22.356Z,27.59
2024-01-11T00:11:22.379Z,27.59
2024-01-11T00:12:22.338Z,27.59
2024-01-11T00:13:22.327Z,27.48
2024-01-11T00:14:22.452Z,27.43
2024-01-11T00:15:22.320Z,27.35
2024-01-11T00:16:22.281Z,27.40
2024-01-11T00:17:22.308Z,27.40
2024-01-11T00:18:22.494Z,27.46
2024-01-11T00:19:22.281Z,27.42
2024-01-11T00:20:22.250Z,27.47
2024-01-11T00:21:22.211Z,27.44
2024-01-11T00:22:22.189Z,27.43
2024-01-11T00:23:22.242Z,27.44
2024-01-11T00:24:22.186Z,27.47
2024-01-11T00:25:22.161Z,27.46
2024-01-11T00:26:22.280Z,27.46
2024-01-11T00:27:22.140Z,27.46
2024-01-11T00:28:22.132Z,27.46
2024-01-11T00:29:22.205Z,27.41
2024-01-11T00:30:22.133Z,27.49
2024-01-11T00:31:22.130Z,27.48
2024-01-11T00:32:22.192Z,27.51
2024-01-11T00:33:22.175Z,27.47
2024-01-11T00:34:22.113Z,27.50
2024-01-11T00:35:22.232Z,27.48
2024-01-11T00:36:22.204Z,27.46
2024-01-11T00:37:22.234Z,27.46
2024-01-11T00:38:22.342Z,27.47
2024-01-11T00:39:22.360Z,27.40
2024-01-11T00:40:22.384Z,27.47
2024-01-11T00:41:22.480Z,27.54
2024-01-11T00:42:22.480Z,27.48
2024-01-11T00:43:22.539Z,27.50
2024-01-11T00:44:22.607Z,27.53
2024-01-11T00:45:22.638Z,27.50
2024-01-11T00:46:22.690Z,27.54
2024-01-11T00:47:22.823Z,27.55
2024-01-11T00:48:22.894Z,27.51
2024-01-11T00:49:22.863Z,27.55
2024-01-11T00:50:22.953Z,27.55
2024-01-11T00:51:22.888Z,27.54
2024-01-11T00:52:22.871Z,27.51
2024-01-11T00:53:22.896Z,27.53
2024-01-11T00:54:22.869Z,27.50
2024-01-11T00:55:22.847Z,27.57
2024-01-11T00:56:22.899Z,27.54
2024-01-11T00:57:23.038Z,27.57
2024-01-11T00:58:22.806Z,27.61
2024-01-11T00:59:22.828Z,27.62
2024-01-11T01:00:22.770Z,27.58
2024-01-11T01:01:22.889Z,27.58
2024-01-11T01:02:22.951Z,27.60
2024-01-11T01:03:22.949Z,27.61
2024-01-11T01:04:22.951Z,27.54
2024-01-11T01:05:23.062Z,27.62
2024-01-11T01:06:23.115Z,27.61
2024-01-11T01:07:23.086Z,27.65
2024-01-11T01:08:23.172Z,27.64
2024-01-11T01:09:23.188Z,27.62
2024-01-11T01:10:23.254Z,27.61
2024-01-11T01:11:23.318Z,27.61
2024-01-11T01:12:23.336Z,27.68
2024-01-11T01:13:23.352Z,27.61
2024-01-11T01:14:23.379Z,27.66
2024-01-11T01:15:23.308Z,27.66
2024-01-11T01:16:23.327Z,27.69
2024-01-11T01:17:23.307Z,27.64
2024-01-11T01:18:23.399Z,27.69
2024-01-11T01:19:23.301Z,27.70
2024-01-11T01:20:23.348Z,27.68
2024-01-11T01:21:23.280Z,27.72
2024-01-11T01:22:23.261Z,27.70
2024-01-11T01:23:23.295Z,27.72
2024-01-11T01:24:23.244Z,27.72
2024-01-11T01:25:23.301Z,27.69
2024-01-11T01:26:23.310Z,27.69
2024-01-11T01:27:23.246Z,27.70
2024-01-11T01:28:23.237Z,27.75
2024-01-11T01:29:23.309Z,27.71
2024-01-11T01:30:23.227Z,27.72
2024-01-11T01:31:23.227Z,27.75
2024-01-11T01:32:23.497Z,27.73
2024-01-11T01:33:23.289Z,27.80
2024-01-11T01:34:23.321Z,27.79
2024-01-11T01:35:23.315Z,27.76
2024-01-11T01:36:23.179Z,27.80
2024-01-11T01:37:23.163Z,27.79
2024-01-11T01:38:23.196Z,27.77
2024-01-11T01:39:23.159Z,27.79
2024-01-11T01:40:23.130Z,27.82
2024-01-11T01:41:23.185Z,27.77
2024-01-11T01:42:23.127Z,27.79
2024-01-11T01:43:23.110Z,27.82
2024-01-11T01:44:23.167Z,27.80
2024-01-11T01:45:23.102Z,27.82
2024-01-11T01:46:23.132Z,27.77
2024-01-11T01:47:23.282Z,27.79
2024-01-11T01:48:23.615Z,27.80
2024-01-11T01:49:23.429Z,27.80
2024-01-11T01:50:23.373Z,27.80
2024-01-11T01:51:23.373Z,27.80
2024-01-11T01:52:23.548Z,27.83
2024-01-11T01:53:23.496Z,27.86
2024-01-11T01:54:23.333Z,27.77
2024-01-11T01:55:23.331Z,27.82
2024-01-11T01:56:23.361Z,27.84
2024-01-11T01:57:23.310Z,27.79
2024-01-11T01:58:23.300Z,27.84
2024-01-11T01:59:23.309Z,27.86
2024-01-11T02:00:23.282Z,27.83
2024-01-11T02:01:23.330Z,27.83
2024-01-11T02:02:23.312Z,27.86
2024-01-11T02:03:23.283Z,27.87
2024-01-11T02:04:23.230Z,27.89
2024-01-11T02:05:23.319Z,27.84
2024-01-11T02:06:23.282Z,27.89
2024-01-11T02:07:23.206Z,27.90
2024-01-11T02:08:23.182Z,27.89
2024-01-11T02:09:23.167Z,27.89
2024-01-11T02:10:23.144Z,27.88
2024-01-11T02:11:23.211Z,27.88
2024-01-11T02:12:23.157Z,27.91
2024-01-11T02:13:23.114Z,27.93
2024-01-11T02:14:23.244Z,27.88
2024-01-11T02:15:23.119Z,27.87
2024-01-11T02:16:23.098Z,27.90
2024-01-11T02:17:23.138Z,27.90
2024-01-11T02:18:23.275Z,27.89
2024-01-11T02:19:23.175Z,27.94
2024-01-11T02:20:23.113Z,27.87
2024-01-11T02:21:23.085Z,27.87
2024-01-11T02:22:23.066Z,27.93
2024-01-11T02:23:23.147Z,27.90
2024-01-11T02:24:23.054Z,27.90
2024-01-11T02:25:23.056Z,27.89
2024-01-11T02:26:23.156Z,27.91
2024-01-11T02:27:23.110Z,27.96
2024-01-11T02:28:23.155Z,27.98
2024-01-11T02:29:23.208Z,27.93
2024-01-11T02:30:23.222Z,27.90
2024-01-11T02:31:23.284Z,28.00
2024-01-11T02:32:23.264Z,27.91
2024-01-11T02:33:23.315Z,27.89
2024-01-11T02:34:23.186Z,27.94
2024-01-11T02:35:23.179Z,27.97
2024-01-11T02:36:23.157Z,27.97
2024-01-11T02:37:23.128Z,27.97
2024-01-11T02:38:23.193Z,27.96
2024-01-11T02:39:23.132Z,28.01
2024-01-11T02:40:23.116Z,27.98
2024-01-11T02:41:23.147Z,27.96
2024-01-11T02:42:23.100Z,27.92
2024-01-11T02:43:23.073Z,27.97
2024-01-11T02:44:23.138Z,27.97
2024-01-11T02:45:23.054Z,27.98
2024-01-11T02:46:23.045Z,27.98
2024-01-11T02:47:23.057Z,27.96
2024-01-11T02:48:23.093Z,27.96
2024-01-11T02:49:23.071Z,27.98
2024-01-11T02:50:23.040Z,28.00
2024-01-11T02:51:23.002Z,28.00
2024-01-11T02:52:22.984Z,28.01
2024-01-11T02:53:23.017Z,27.97
2024-01-11T02:54:22.965Z,28.01
2024-01-11T02:55:22.958Z,28.05
2024-01-11T02:56:23.005Z,28.02
2024-01-11T02:57:22.954Z,27.98
2024-01-11T02:58:22.998Z,28.07
2024-01-11T02:59:23.067Z,28.02
2024-01-11T03:00:23.092Z,28.01
2024-01-11T03:01:23.164Z,27.98
2024-01-11T03:02:23.250Z,27.97
2024-01-11T03:03:23.268Z,27.98
2024-01-11T03:04:23.274Z,28.02
2024-01-11T03:05:23.339Z,27.97
2024-01-11T03:06:23.541Z,28.00
2024-01-11T03:07:23.415Z,28.04
2024-01-11T03:08:23.548Z,28.01
2024-01-11T03:09:23.500Z,28.04
2024-01-11T03:10:23.542Z,28.07
2024-01-11T03:11:23.755Z,28.01
2024-01-11T03:12:23.659Z,28.04
2024-01-11T03:13:23.713Z,28.00
2024-01-11T03:14:23.781Z,28.04
2024-01-11T03:15:23.792Z,26.50
2024-01-11T03:16:23.827Z,26.19
2024-01-11T03:17:23.871Z,26.19
2024-01-11T03:18:23.999Z,25.77
2024-01-11T03:19:23.838Z,25.37
2024-01-11T03:20:23.944Z,24.88
2024-01-11T03:21:23.822Z,24.50
2024-01-11T03:22:23.811Z,24.45
2024-01-11T03:23:23.828Z,24.10
2024-01-11T03:24:23.790Z,23.63
2024-01-11T03:25:23.760Z,23.24
2024-01-11T03:26:23.774Z,23.49
2024-01-11T03:27:23.744Z,22.85
2024-01-11T03:28:23.739Z,22.63
2024-01-11T03:29:23.803Z,22.32
2024-01-11T03:30:23.765Z,22.15
2024-01-11T03:31:23.738Z,21.86
2024-01-11T03:32:23.820Z,22.16
2024-01-11T03:33:23.931Z,21.79
2024-01-11T03:34:23.761Z,21.76
2024-01-11T03:35:23.711Z,21.51
2024-01-11T03:36:23.687Z,21.15
2024-01-11T03:37:23.675Z,21.21
2024-01-11T03:38:23.683Z,21.49
2024-01-11T03:39:23.671Z,21.09
2024-01-11T03:40:23.691Z,20.87
2024-01-11T03:41:23.704Z,20.75
2024-01-11T03:42:23.661Z,20.48
2024-01-11T03:43:23.680Z,20.57
2024-01-11T03:44:23.726Z,20.67
2024-01-11T03:45:23.674Z,20.32
2024-01-11T03:46:23.670Z,20.32
2024-01-11T03:47:23.678Z,20.19
2024-01-11T03:48:23.796Z,19.92
2024-01-11T03:49:23.737Z,20.02
2024-01-11T03:50:23.686Z,20.36
2024-01-11T03:51:23.631Z,20.06
2024-01-11T03:52:23.634Z,19.86
2024-01-11T03:53:23.674Z,19.65
2024-01-11T03:54:23.684Z,19.56
2024-01-11T03:55:23.639Z,19.57
2024-01-11T03:56:23.681Z,19.91
2024-01-11T03:57:23.629Z,19.72
2024-01-11T03:58:23.650Z,19.57
2024-01-11T03:59:23.637Z,19.31
2024-01-11T04:00:23.620Z,19.38
2024-01-11T04:01:23.652Z,19.25
2024-01-11T04:02:23.676Z,19.44
2024-01-11T04:03:23.701Z,19.20
2024-01-11T04:04:23.665Z,19.32
2024-01-11T04:05:23.854Z,19.06
2024-01-11T04:06:23.885Z,19.07
2024-01-11T04:07:23.693Z,18.86
2024-01-11T04:08:23.768Z,19.10
2024-01-11T04:09:23.726Z,19.11
2024-01-11T04:10:23.742Z,19.08
2024-01-11T04:11:23.790Z,18.89
2024-01-11T04:12:23.788Z,18.89
2024-01-11T04:13:25.496Z,18.69
2024-01-11T04:14:23.883Z,18.82
2024-01-11T04:15:23.826Z,19.13
2024-01-11T04:16:23.885Z,19.01
2024-01-11T04:17:24.053Z,18.52
2024-01-11T04:18:23.964Z,18.48
2024-01-11T04:19:24.321Z,18.48
2024-01-11T04:20:23.974Z,18.36
2024-01-11T04:21:23.970Z,18.73
2024-01-11T04:22:23.994Z,18.61
2024-01-11T04:23:24.122Z,18.55
2024-01-11T04:24:24.050Z,18.58
2024-01-11T04:25:24.056Z,18.12
2024-01-11T04:26:24.137Z,18.15
2024-01-11T04:27:24.156Z,18.37
2024-01-11T04:28:24.144Z,18.72
2024-01-11T04:29:24.228Z,18.35
2024-01-11T04:30:24.246Z,18.50
2024-01-11T04:31:24.255Z,18.38
2024-01-11T04:32:24.303Z,18.38
2024-01-11T04:33:24.395Z,18.16
2024-01-11T04:34:24.428Z,18.50
2024-01-11T04:35:24.415Z,18.66
2024-01-11T04:36:24.420Z,18.34
2024-01-11T04:37:24.452Z,18.31
2024-01-11T04:38:24.480Z,18.22
2024-01-11T04:39:24.438Z,18.01
2024-01-11T04:40:24.454Z,17.99
2024-01-11T04:41:31.751Z,18.29
2024-01-11T04:42:31.744Z,18.06
2024-01-11T04:43:31.764Z,18.25
2024-01-11T04:44:31.837Z,18.04
2024-01-11T04:45:31.782Z,18.01
2024-01-11T04:46:31.813Z,18.03
2024-01-11T04:47:31.863Z,18.31
2024-01-11T04:48:31.989Z,17.98
2024-01-11T04:49:31.932Z,18.19
2024-01-11T04:50:31.909Z,18.19
2024-01-11T04:51:31.872Z,17.92
2024-01-11T04:52:31.901Z,17.82
2024-01-11T04:53:31.937Z,17.94
2024-01-11T04:54:31.911Z,18.26
2024-01-11T04:55:31.929Z,17.79
2024-01-11T04:56:32.020Z,17.78
2024-01-11T04:57:31.946Z,17.86
2024-01-11T04:58:31.986Z,17.76
2024-01-11T04:59:32.002Z,17.76
2024-01-11T05:00:32.030Z,18.03
2024-01-11T05:01:32.054Z,18.17
2024-01-11T05:02:32.156Z,17.72
2024-01-11T05:03:32.087Z,17.80
2024-01-11T05:04:32.065Z,17.73
2024-01-11T05:05:32.078Z,17.63
2024-01-11T05:06:32.110Z,17.77
2024-01-11T05:07:32.122Z,18.09
2024-01-11T05:08:32.126Z,17.80
2024-01-11T05:09:32.117Z,17.85
2024-01-11T05:10:32.136Z,17.68
2024-01-11T05:11:32.218Z,17.43
2024-01-11T05:12:32.157Z,17.57
2024-01-11T05:13:32.164Z,17.82
2024-01-11T05:14:32.241Z,17.99
2024-01-11T05:15:32.203Z,17.79
2024-01-11T05:16:32.231Z,17.70
2024-01-11T05:17:32.304Z,17.61
2024-01-11T05:18:34.627Z,17.54
2024-01-11T05:19:32.336Z,17.59
2024-01-11T05:20:32.297Z,17.89
2024-01-11T05:21:32.287Z,17.74
2024-01-11T05:22:32.296Z,17.46
2024-01-11T05:23:32.358Z,17.51
2024-01-11T05:24:32.291Z,17.45
2024-01-11T05:25:32.315Z,17.55
2024-01-11T05:26:32.380Z,17.58
2024-01-11T05:27:32.342Z,17.86
2024-01-11T05:28:32.347Z,17.74
2024-01-11T05:29:32.388Z,17.70
2024-01-11T05:30:32.439Z,17.49
2024-01-11T05:31:32.491Z,17.23
2024-01-11T05:32:32.530Z,17.46
2024-01-11T05:33:32.576Z,17.62
2024-01-11T05:34:32.578Z,17.88
2024-01-11T05:35:32.458Z,17.71
2024-01-11T05:36:32.491Z,17.70
2024-01-11T05:37:32.473Z,17.33
2024-01-11T05:38:32.506Z,17.39
2024-01-11T05:39:32.466Z,17.47
2024-01-11T05:40:32.475Z,17.74
2024-01-11T05:41:32.524Z,17.37
2024-01-11T05:42:32.493Z,17.40
2024-01-11T05:43:32.514Z,17.45
2024-01-11T05:44:32.571Z,17.18
2024-01-11T05:45:45.377Z,17.37
2024-01-11T05:46:33.942Z,17.52
2024-01-11T05:47:32.601Z,17.69
2024-01-11T05:48:32.621Z,17.65
2024-01-11T05:49:32.563Z,17.19
2024-01-11T05:50:32.559Z,17.10
2024-01-11T05:51:32.549Z,17.20
2024-01-11T05:52:32.557Z,17.37
2024-01-11T05:53:32.596Z,17.61
2024-01-11T05:54:32.574Z,17.50
2024-01-11T05:55:32.606Z,17.24
2024-01-11T05:56:32.674Z,17.30
2024-01-11T05:57:32.603Z,17.06
2024-01-11T05:58:32.610Z,16.93
2024-01-11T05:59:32.666Z,17.25
2024-01-11T06:00:32.677Z,17.63
2024-01-11T06:01:32.652Z,17.43
2024-01-11T06:02:32.677Z,17.50
2024-01-11T06:03:32.695Z,17.21
2024-01-11T06:04:32.634Z,17.03
2024-01-11T06:05:32.787Z,16.98
2024-01-11T06:06:32.737Z,17.35
2024-01-11T06:07:32.658Z,17.62
2024-01-11T06:08:32.806Z,17.74
2024-01-11T06:09:32.666Z,17.91
2024-01-11T06:10:32.658Z,18.37
2024-01-11T06:11:32.719Z,18.86
2024-01-11T06:12:32.687Z,18.95
2024-01-11T06:13:32.681Z,18.99
2024-01-11T06:14:32.742Z,19.32
2024-01-11T06:15:32.707Z,19.48
2024-01-11T06:16:32.727Z,19.50
2024-01-11T06:17:32.787Z,19.62
2024-01-11T06:18:32.791Z,19.74
2024-01-11T06:19:32.716Z,19.83
2024-01-11T06:20:32.711Z,19.91
2024-01-11T06:21:32.717Z,19.96
2024-01-11T06:22:32.701Z,20.08
2024-01-11T06:23:32.703Z,20.17
2024-01-11T06:24:32.714Z,20.26
2024-01-11T06:25:32.738Z,20.33
2024-01-11T06:26:32.732Z,20.38
2024-01-11T06:27:32.738Z,20.41
2024-01-11T06:28:34.619Z,20.56
2024-01-11T06:29:32.770Z,20.56
2024-01-11T06:30:32.791Z,20.73
2024-01-11T06:31:32.798Z,20.97
2024-01-11T06:32:32.833Z,21.08
2024-01-11T06:33:32.849Z,21.25
2024-01-11T06:34:32.810Z,21.49
2024-01-11T06:35:32.814Z,21.77
2024-01-11T06:36:32.767Z,22.71
2024-01-11T06:37:32.777Z,23.06
2024-01-11T06:38:32.776Z,22.84
2024-01-11T06:39:33.297Z,23.02
2024-01-11T06:40:32.791Z,23.17
2024-01-11T06:41:32.823Z,23.47
2024-01-11T06:42:32.762Z,23.60
2024-01-11T06:43:32.789Z,23.83
2024-01-11T06:44:32.777Z,24.48
2024-01-11T06:45:32.768Z,24.62
2024-01-11T06:46:32.777Z,24.73
2024-01-11T06:47:32.984Z,24.93
2024-01-11T06:48:32.891Z,25.13
2024-01-11T06:49:32.878Z,25.46
2024-01-11T06:50:32.800Z,25.87
2024-01-11T06:51:32.755Z,25.65
2024-01-11T06:52:32.775Z,22.27
2024-01-11T06:53:32.812Z,20.51
2024-01-11T06:54:32.735Z,19.96
2024-01-11T06:55:32.710Z,18.72
2024-01-11T06:56:32.817Z,18.18
2024-01-11T06:57:32.752Z,17.70
2024-01-11T06:58:32.726Z,17.13
2024-01-11T06:59:32.798Z,17.69
2024-01-11T07:00:32.813Z,18.76
2024-01-11T07:01:32.731Z,19.86
2024-01-11T07:02:32.771Z,20.17
2024-01-11T07:03:32.784Z,20.26
2024-01-11T07:04:34.584Z,20.35
2024-01-11T07:05:32.826Z,20.64
2024-01-11T07:06:32.799Z,20.85
2024-01-11T07:07:32.752Z,21.14
2024-01-11T07:08:32.787Z,21.29
2024-01-11T07:09:32.761Z,21.50
2024-01-11T07:10:32.743Z,21.69
2024-01-11T07:11:32.766Z,21.99
2024-01-11T07:12:32.755Z,22.19
2024-01-11T07:13:32.752Z,22.29
2024-01-11T07:14:32.821Z,22.50
2024-01-11T07:15:32.752Z,22.66
2024-01-11T07:16:32.748Z,22.78
2024-01-11T07:17:32.788Z,23.02
2024-01-11T07:18:32.821Z,23.16
2024-01-11T07:19:33.025Z,23.31
2024-01-11T07:20:32.743Z,23.52
2024-01-11T07:21:32.866Z,23.62
2024-01-11T07:22:32.676Z,23.73
2024-01-11T07:23:32.682Z,23.95
2024-01-11T07:24:32.687Z,24.16
2024-01-11T07:25:32.646Z,24.17
2024-01-11T07:26:32.686Z,24.30
2024-01-11T07:27:32.653Z,24.36
2024-01-11T07:28:32.665Z,24.42
2024-01-11T07:29:32.646Z,24.57
2024-01-11T07:30:32.722Z,24.59
2024-01-11T07:31:32.599Z,24.64
2024-01-11T07:32:32.744Z,24.84
2024-01-11T07:33:32.733Z,24.96
2024-01-11T07:34:32.688Z,25.08
2024-01-11T07:35:32.580Z,25.08
2024-01-11T07:36:32.591Z,25.17
2024-01-11T07:37:32.559Z,25.23
2024-01-11T07:38:32.590Z,25.34
2024-01-11T07:39:32.550Z,25.49
2024-01-11T07:40:34.525Z,25.51
2024-01-11T07:41:32.628Z,25.59
2024-01-11T07:42:32.502Z,24.99
2024-01-11T07:43:41.191Z,22.84
2024-01-11T07:44:33.533Z,19.89
2024-01-11T07:45:32.478Z,18.90
2024-01-11T07:46:38.981Z,20.92
2024-01-11T07:47:32.522Z,21.41
2024-01-11T07:48:32.593Z,22.06
2024-01-11T07:49:32.486Z,22.08
2024-01-11T07:50:32.563Z,22.39
2024-01-11T07:51:32.460Z,22.46
2024-01-11T07:52:32.499Z,22.74
2024-01-11T07:53:32.557Z,22.97
2024-01-11T07:54:32.458Z,22.94
2024-01-11T07:55:32.477Z,23.04
2024-01-11T07:56:32.506Z,23.18
2024-01-11T07:57:32.459Z,23.33
2024-01-11T07:58:32.459Z,23.46
2024-01-11T07:59:32.494Z,23.80
2024-01-11T08:00:32.552Z,23.83
2024-01-11T08:01:32.406Z,24.07
2024-01-11T08:02:32.511Z,24.24
2024-01-11T08:03:32.406Z,24.24
2024-01-11T08:04:32.373Z,24.36
2024-01-11T08:05:32.414Z,24.57
2024-01-11T08:06:32.455Z,24.74
2024-01-11T08:07:32.349Z,24.86
2024-01-11T08:08:32.404Z,25.10
2024-01-11T08:09:32.390Z,25.15
2024-01-11T08:10:32.318Z,25.25
2024-01-11T08:11:33.706Z,25.17
2024-01-11T08:12:32.447Z,25.16
2024-01-11T08:13:32.426Z,25.35
2024-01-11T08:14:32.492Z,25.59
2024-01-11T08:15:32.466Z,25.71
2024-01-11T08:16:32.473Z,25.76
2024-01-11T08:17:32.559Z,25.77
2024-01-11T08:18:32.742Z,25.80
2024-01-11T08:19:32.518Z,25.78
2024-01-11T08:20:32.558Z,25.76
2024-01-11T08:21:32.471Z,25.78
2024-01-11T08:22:32.491Z,25.88
2024-01-11T08:23:32.469Z,25.89
2024-01-11T08:24:32.446Z,25.92
2024-01-11T08:25:32.403Z,22.55
2024-01-11T08:26:32.508Z,18.92
2024-01-11T08:27:32.395Z,18.02
2024-01-11T08:28:32.383Z,19.90
2024-01-11T08:29:32.397Z,21.67
2024-01-11T08:30:32.374Z,22.40
2024-01-11T08:31:32.371Z,22.86
2024-01-11T08:32:32.857Z,22.81
2024-01-11T08:33:32.569Z,22.75
2024-01-11T08:34:32.685Z,22.77
2024-01-11T08:35:32.532Z,22.99
2024-01-11T08:36:32.509Z,23.33
2024-01-11T08:37:32.486Z,23.66
2024-01-11T08:38:32.455Z,23.87
2024-01-11T08:39:32.485Z,24.33
2024-01-11T08:40:32.441Z,24.42
2024-01-11T08:41:32.517Z,24.64
2024-01-11T08:42:32.412Z,24.55
2024-01-11T08:43:32.443Z,24.62
2024-01-11T08:44:32.427Z,24.72
2024-01-11T08:45:32.499Z,24.73
2024-01-11T08:46:32.369Z,24.73
2024-01-11T08:47:32.451Z,24.77
2024-01-11T08:48:32.433Z,24.87
2024-01-11T08:49:32.335Z,24.89
2024-01-11T08:50:32.318Z,24.96
2024-01-11T08:51:32.270Z,24.95
2024-01-11T08:52:32.269Z,25.28
2024-01-11T08:53:32.300Z,25.24
2024-01-11T08:54:32.247Z,25.46
2024-01-11T08:55:32.275Z,25.65
2024-01-11T08:56:32.361Z,25.80
2024-01-11T08:57:32.349Z,26.01
2024-01-11T08:58:32.409Z,26.17
2024-01-11T08:59:32.520Z,26.14
2024-01-11T09:00:32.503Z,26.20
2024-01-11T09:01:32.526Z,26.26
2024-01-11T09:02:32.608Z,26.46
2024-01-11T09:03:32.673Z,26.63
2024-01-11T09:04:32.706Z,26.68
2024-01-11T09:05:32.770Z,26.62
2024-01-11T09:06:32.716Z,26.63
2024-01-11T09:07:32.629Z,26.73
2024-01-11T09:08:32.656Z,26.75
2024-01-11T09:09:36.783Z,26.89
2024-01-11T09:10:33.568Z,26.88
2024-01-11T09:11:32.605Z,27.20
2024-01-11T09:12:32.525Z,27.03
2024-01-11T09:13:32.518Z,27.27
2024-01-11T09:14:32.495Z,27.28
2024-01-11T09:15:32.480Z,27.36
2024-01-11T09:16:32.461Z,27.53
2024-01-11T09:17:32.482Z,27.50
2024-01-11T09:18:32.573Z,27.51
2024-01-11T09:19:32.451Z,27.61
2024-01-11T09:20:32.437Z,27.50
2024-01-11T09:21:32.382Z,27.50
2024-01-11T09:22:32.387Z,27.53
2024-01-11T09:23:32.378Z,27.58
2024-01-11T09:24:36.084Z,27.62
2024-01-11T09:25:33.316Z,27.54
2024-01-11T09:26:32.354Z,27.51
2024-01-11T09:27:32.290Z,27.50
2024-01-11T09:28:32.247Z,27.43
2024-01-11T09:29:32.352Z,27.41
2024-01-11T09:30:32.299Z,27.57
2024-01-11T09:31:32.234Z,27.51
2024-01-11T09:32:32.449Z,21.43
2024-01-11T09:33:32.495Z,16.08
2024-01-11T09:34:32.219Z,14.58
2024-01-11T09:35:32.184Z,13.99
2024-01-11T09:36:32.152Z,13.69
2024-01-11T09:37:32.193Z,13.77
2024-01-11T09:38:32.251Z,13.84
2024-01-11T09:39:32.297Z,13.90
2024-01-11T09:40:32.310Z,14.11
2024-01-11T09:41:32.341Z,14.15
2024-01-11T09:42:32.425Z,14.29
2024-01-11T09:43:32.413Z,14.15
2024-01-11T09:44:32.423Z,14.41
2024-01-11T09:45:32.445Z,14.69
2024-01-11T09:46:32.475Z,14.96
2024-01-11T09:47:32.549Z,14.97
2024-01-11T09:48:32.573Z,15.17
2024-01-11T09:49:32.671Z,15.43
2024-01-11T09:50:32.590Z,15.97
2024-01-11T09:51:32.636Z,17.31
2024-01-11T09:52:33.671Z,17.86
2024-01-11T09:53:32.717Z,19.08
2024-01-11T09:54:32.723Z,20.15
2024-01-11T09:55:32.773Z,20.72
2024-01-11T09:56:32.866Z,20.88
2024-01-11T09:57:32.905Z,20.97
2024-01-11T09:58:32.900Z,21.05
2024-01-11T09:59:33.013Z,21.75
2024-01-11T10:00:33.093Z,21.61
2024-01-11T10:01:33.129Z,21.21
2024-01-11T10:02:33.225Z,21.03
2024-01-11T10:03:33.219Z,21.25
2024-01-11T10:04:33.224Z,21.21
2024-01-11T10:05:33.296Z,20.88
2024-01-11T10:06:33.291Z,20.94
2024-01-11T10:07:33.523Z,20.85
2024-01-11T10:08:33.376Z,20.39
2024-01-11T10:09:33.362Z,19.92
2024-01-11T10:10:33.407Z,19.48
2024-01-11T10:11:33.411Z,19.19
2024-01-11T10:12:33.363Z,19.27
2024-01-11T10:13:33.354Z,19.66
2024-01-11T10:14:33.508Z,19.75
2024-01-11T10:15:33.374Z,20.39
2024-01-11T10:16:33.386Z,20.50
2024-01-11T10:17:33.516Z,20.66
2024-01-11T10:18:33.540Z,20.78
2024-01-11T10:19:33.609Z,20.87
2024-01-11T10:20:33.781Z,21.10
2024-01-11T10:21:33.637Z,20.67
2024-01-11T10:22:33.641Z,21.16
2024-01-11T10:23:33.632Z,21.25
2024-01-11T10:24:33.652Z,21.08
2024-01-11T10:25:33.690Z,21.21
2024-01-11T10:26:33.799Z,21.41
2024-01-11T10:27:33.705Z,21.42
2024-01-11T10:28:33.721Z,21.61
2024-01-11T10:29:33.737Z,21.52
2024-01-11T10:30:33.791Z,22.02
2024-01-11T10:31:33.766Z,22.01
2024-01-11T10:32:33.820Z,22.07
2024-01-11T10:33:33.816Z,21.97
2024-01-11T10:34:33.826Z,21.99
2024-01-11T10:35:33.981Z,21.61
2024-01-11T10:36:33.999Z,21.58
2024-01-11T10:37:33.953Z,21.77
2024-01-11T10:38:34.007Z,21.70
2024-01-11T10:40:28.792Z,22.38
2024-01-11T10:41:28.750Z,22.15
2024-01-11T10:42:28.682Z,22.46
2024-01-11T10:43:28.636Z,22.38
2024-01-11T10:44:28.682Z,22.49
2024-01-11T10:45:28.661Z,22.43
2024-01-11T10:46:28.732Z,22.48
2024-01-11T10:47:28.699Z,22.57
2024-01-11T10:48:28.780Z,22.69
2024-01-11T10:49:28.729Z,22.79
2024-01-11T10:50:28.663Z,22.87
2024-01-11T10:51:28.654Z,22.89
2024-01-11T10:52:28.639Z,22.95
2024-01-11T10:53:29.516Z,23.08
2024-01-11T10:54:28.622Z,23.15
2024-01-11T10:55:28.822Z,23.44
2024-01-11T10:56:28.643Z,23.51
2024-01-11T10:57:28.604Z,23.52
2024-01-11T10:58:28.655Z,23.49
2024-01-11T10:59:28.584Z,23.50
2024-01-11T11:00:28.653Z,23.66
2024-01-11T11:01:28.548Z,23.70
2024-01-11T11:02:28.730Z,23.75
2024-01-11T11:03:28.538Z,23.96
2024-01-11T11:04:28.494Z,24.38
2024-01-11T11:05:28.645Z,24.53
2024-01-11T11:06:28.586Z,24.50
2024-01-11T11:07:28.475Z,24.50
2024-01-11T11:08:28.515Z,24.49
2024-01-11T11:09:28.439Z,24.51
2024-01-11T11:10:28.418Z,24.58
2024-01-11T11:11:28.460Z,24.61
2024-01-11T11:12:28.399Z,24.75
2024-01-11T11:13:28.416Z,24.72
2024-01-11T11:14:28.453Z,24.71
2024-01-11T11:15:28.347Z,24.74
2024-01-11T11:16:28.357Z,24.73
2024-01-11T11:17:28.469Z,24.77
2024-01-11T11:18:28.362Z,24.77
2024-01-11T11:19:28.340Z,24.83
2024-01-11T11:20:28.298Z,24.88
2024-01-11T11:21:28.305Z,24.94
2024-01-11T11:22:28.283Z,24.92
2024-01-11T11:23:28.303Z,24.91
2024-01-11T11:24:28.238Z,25.00
2024-01-11T11:25:28.242Z,24.95
2024-01-11T11:26:28.327Z,25.01
2024-01-11T11:27:28.198Z,25.00
2024-01-11T11:28:28.223Z,24.98
2024-01-11T11:29:28.184Z,24.93
2024-01-11T11:30:28.167Z,24.95
2024-01-11T11:31:28.145Z,25.07
2024-01-11T11:32:28.277Z,25.01
2024-01-11T11:33:28.213Z,25.08
2024-01-11T11:34:28.185Z,25.08
2024-01-11T11:35:28.089Z,25.08
2024-01-11T11:36:28.039Z,25.04
2024-01-11T11:37:28.071Z,25.18
2024-01-11T11:38:28.115Z,25.05
2024-01-11T11:39:28.069Z,25.04
2024-01-11T11:40:27.973Z,25.22
2024-01-11T11:41:28.005Z,24.75
2024-01-11T11:42:27.994Z,23.74
2024-01-11T11:43:27.922Z,24.00
2024-01-11T11:44:27.933Z,23.10
2024-01-11T11:45:27.907Z,23.04
2024-01-11T11:46:27.874Z,22.08
2024-01-11T11:47:27.959Z,21.49
2024-01-11T11:48:27.950Z,20.67
2024-01-11T11:49:27.908Z,20.02
2024-01-11T11:50:27.848Z,20.22
2024-01-11T11:51:29.253Z,20.01
2024-01-11T11:52:27.816Z,20.70
2024-01-11T11:53:27.864Z,20.35
2024-01-11T11:54:27.782Z,19.05
2024-01-11T11:55:27.782Z,19.05
2024-01-11T11:56:27.785Z,18.96
2024-01-11T11:57:27.760Z,19.07
2024-01-11T11:58:27.735Z,18.45
2024-01-11T11:59:27.794Z,18.69
2024-01-11T12:00:27.715Z,18.48
2024-01-11T12:01:27.705Z,18.61
2024-01-11T12:02:27.730Z,18.09
2024-01-11T12:03:27.674Z,18.37
2024-01-11T12:04:27.743Z,18.22
2024-01-11T12:05:27.742Z,18.17
2024-01-11T12:06:27.796Z,18.43
2024-01-11T12:07:27.813Z,18.55
2024-01-11T12:08:27.935Z,18.48
2024-01-11T12:09:27.870Z,18.58
2024-01-11T12:10:27.912Z,18.32
2024-01-11T12:11:28.248Z,18.79
2024-01-11T12:12:28.016Z,18.94
2024-01-11T12:13:27.958Z,18.88
2024-01-11T12:14:28.672Z,19.00
2024-01-11T12:15:27.948Z,18.83
2024-01-11T12:16:27.945Z,19.12
2024-01-11T12:17:28.191Z,19.34
2024-01-11T12:18:28.001Z,19.25
2024-01-11T12:19:28.031Z,19.09
2024-01-11T12:20:27.898Z,19.35
2024-01-11T12:21:27.890Z,19.42
2024-01-11T12:22:27.881Z,19.67
2024-01-11T12:23:27.867Z,19.29
2024-01-11T12:24:27.857Z,19.45
2024-01-11T12:25:27.841Z,19.45
2024-01-11T12:26:27.892Z,20.15
2024-01-11T12:27:27.888Z,19.99
2024-01-11T12:28:27.849Z,19.80
2024-01-11T12:30:27.950Z,19.20
2024-01-11T12:31:27.881Z,20.12
2024-01-11T12:32:27.908Z,20.05
2024-01-11T12:33:28.102Z,20.24
2024-01-11T12:34:27.986Z,20.57
2024-01-11T12:35:28.033Z,20.59
2024-01-11T12:36:28.034Z,20.64
2024-01-11T12:37:28.062Z,20.63
2024-01-11T12:38:28.126Z,20.65
2024-01-11T12:39:28.142Z,20.73
2024-01-11T12:40:28.122Z,20.67
2024-01-11T12:41:28.179Z,20.68
2024-01-11T12:42:28.100Z,20.68
2024-01-11T12:43:28.085Z,20.73
2024-01-11T12:44:28.094Z,20.69
2024-01-11T12:45:28.082Z,20.71
2024-01-11T12:46:28.044Z,20.70
2024-01-11T12:47:28.205Z,20.76
2024-01-11T12:48:28.264Z,20.73
2024-01-11T12:49:28.087Z,20.82
2024-01-11T12:50:28.330Z,20.84
2024-01-11T12:51:27.994Z,20.86
2024-01-11T12:52:27.962Z,20.86
2024-01-11T12:53:28.050Z,20.91
2024-01-11T12:54:27.939Z,20.93